Meteorological information in strange format.

METAR = LHBP 171200Z 10003KT 040V140 CAVOK 11/03 Q1021 NOSIG

SHORT TAF = TAF TAF LHBP 242330Z 2423/2424 30008KT CAVOK BECMG 2506/2509 24010KT OVC030 TEMPO 2509/2515 24015G25KT 8000 -RA BKN013 OVC025 BECMG 2515/2518 30008KT CAVOK

LONG TAF = TAF TAF LHBP 171115Z 1712/1812 VRB03KT CAVOK TEMPO 1712/1720 05008KT SCT040 TEMPO 1722/1803 5000 BR TEMPO 1803/1808 -SHRA BKN030 BECMG 1804/1807 31012KT TEMPO 1810/1812 31015G25KT SCT030

STATION........ LHBP
OBSERVED....... Mon Feb 17, 13:00 CET
NOW............ Mon Feb 17, 13:28 CET
AGE............ 28 min ago
WIND........... E at 3 mph
VISIBILITY..... greater than 7 miles
CLOUDS......... clear skies
TEMP........... 52°F (11°C)
DEWPT.......... 37°F (3°C)
HUMIDITY....... 58%
BAROMETER...... 1021 hPa (30.15 in Hg)

Further information from LHBP station

Request meteor information from:        station.    

 

www.tothgeza.hu

 

Magyar változat
Copyright © 2003-2020 Tóth Géza Minden jog fenntartva.